Time;durP1;ratioP1;P1;durP2;ratioP2;P2;SDS_P1;SDS_P2;PMS_P1;PMS_P2;Temp;Humidity;BMP_temperature;BMP_pressure;BME280_temperature;BME280_humidity;BME280_pressure;Samples;Min_cycle;Max_cycle;Signal;HPM_P1;HPM_P2
2022/10/05 00:02:16;;;;;;;;;;;;;;;5.06;100.00;98818.56;7386175;19;19918;-59
2022/10/05 00:04:46;;;;;;;;;;;;;;;5.40;100.00;98814.03;7387184;19;21391;-59
2022/10/05 00:07:19;;;;;;;;;;;;;;;5.69;100.00;98807.91;7387064;19;19918;-60
2022/10/05 00:09:54;;;;;;;;;;;;;;;5.71;100.00;98806.09;7379400;19;19915;-59
2022/10/05 00:12:28;;;;;;;;;;;;;;;5.54;100.00;98803.16;7385776;19;20216;-59
2022/10/05 00:15:02;;;;;;;;;;;;;;;5.07;100.00;98809.00;7380971;19;20359;-65
2022/10/05 00:17:33;;;;;;;;;;;;;;;5.69;100.00;98802.69;7385814;19;19914;-59
2022/10/05 00:20:03;;;;;;;;;;;;;;;6.07;100.00;98808.34;7385562;19;20355;-59
2022/10/05 00:22:35;;;;;;;;;;;;;;;5.95;100.00;98800.94;7379586;19;19911;-60
2022/10/05 00:25:15;;;;;;;;;;;;;;;5.96;100.00;98786.13;7381760;19;19935;-61
2022/10/05 00:27:48;;;;;;;;;;;;;;;5.71;100.00;98793.91;7385801;19;19911;-59
2022/10/05 00:30:20;;;;;;;;;;;;;;;5.73;100.00;98788.63;7385932;19;19942;-59
2022/10/05 00:32:53;;;;;;;;;;;;;;;6.03;100.00;98791.06;7389130;19;20294;-59
2022/10/05 00:35:25;;;;;;;;;;;;;;;5.81;100.00;98784.00;7387795;19;19914;-60
2022/10/05 00:37:55;;;;;;;;;;;;;;;5.82;100.00;98783.09;7393170;19;20278;-59
2022/10/05 00:40:33;;;;;;;;;;;;;;;5.83;100.00;98775.22;7390467;19;19915;-59
2022/10/05 00:43:24;;;;;;;;;;;;;;;5.81;100.00;98769.16;7388019;19;19918;-59
2022/10/05 00:45:59;;;;;;;;;;;;;;;5.65;100.00;98773.19;7388246;19;19974;-59
2022/10/05 00:48:35;;;;;;;;;;;;;;;5.45;100.00;98765.19;7390479;19;19911;-61
2022/10/05 00:51:17;;;;;;;;;;;;;;;5.85;100.00;98764.72;7389628;19;20004;-60
2022/10/05 00:53:54;;;;;;;;;;;;;;;5.76;100.00;98763.25;7390422;19;20249;-60
2022/10/05 00:56:33;;;;;;;;;;;;;;;5.61;100.00;98755.06;7393116;19;19923;-59
2022/10/05 00:59:14;;;;;;;;;;;;;;;5.69;100.00;98755.69;7387751;19;19915;-62
2022/10/05 01:01:46;;;;;;;;;;;;;;;5.91;100.00;98748.81;7392390;19;19911;-59
2022/10/05 01:04:18;;;;;;;;;;;;;;;5.92;100.00;98745.34;7385656;19;19946;-63
2022/10/05 01:06:58;;;;;;;;;;;;;;;6.12;100.00;98748.13;7389652;19;20351;-59
2022/10/05 01:09:35;;;;;;;;;;;;;;;6.19;100.00;98747.00;7389992;19;20319;-59
2022/10/05 01:12:10;;;;;;;;;;;;;;;6.08;100.00;98743.91;7389775;19;20015;-59
2022/10/05 01:14:49;;;;;;;;;;;;;;;6.16;100.00;98745.34;7388315;19;19992;-60
2022/10/05 01:17:22;;;;;;;;;;;;;;;6.09;100.00;98750.81;7387972;19;19941;-59
2022/10/05 01:20:02;;;;;;;;;;;;;;;5.71;100.00;98754.72;7390906;19;19918;-59
2022/10/05 01:22:38;;;;;;;;;;;;;;;5.66;100.00;98758.41;7383619;19;19918;-58
2022/10/05 01:25:18;;;;;;;;;;;;;;;5.51;100.00;98754.53;7390989;19;19919;-59
2022/10/05 01:27:59;;;;;;;;;;;;;;;5.69;100.00;98756.53;7385716;19;19914;-59
2022/10/05 01:30:31;;;;;;;;;;;;;;;5.81;100.00;98756.09;7392588;19;19935;-59
2022/10/05 01:33:04;;;;;;;;;;;;;;;5.81;100.00;98756.09;7385839;19;19966;-66
2022/10/05 01:35:40;;;;;;;;;;;;;;;6.03;100.00;98753.69;7391863;19;19946;-59
2022/10/05 01:38:22;;;;;;;;;;;;;;;5.83;100.00;98751.69;7388265;19;19935;-59
2022/10/05 01:40:56;;;;;;;;;;;;;;;5.36;100.00;98755.03;7389214;19;19921;-59
2022/10/05 01:43:32;;;;;;;;;;;;;;;5.79;100.00;98737.06;7385779;19;19919;-60
2022/10/05 01:46:04;;;;;;;;;;;;;;;5.91;100.00;98740.97;7382699;19;19918;-59
2022/10/05 01:48:37;;;;;;;;;;;;;;;5.44;100.00;98728.69;7386709;19;20360;-60
2022/10/05 01:51:12;;;;;;;;;;;;;;;5.59;100.00;98731.63;7388805;19;20464;-59
2022/10/05 01:53:49;;;;;;;;;;;;;;;5.71;100.00;98739.06;7388896;19;19915;-59
2022/10/05 01:56:22;;;;;;;;;;;;;;;5.44;100.00;98737.34;7389669;19;19938;-59
2022/10/05 01:58:57;;;;;;;;;;;;;;;5.28;100.00;98736.16;7382551;19;19931;-59
2022/10/05 02:01:32;;;;;;;;;;;;;;;5.55;100.00;98734.41;7386754;19;19925;-59
2022/10/05 02:04:05;;;;;;;;;;;;;;;5.04;100.00;98723.03;7386552;19;19914;-67
2022/10/05 02:06:40;;;;;;;;;;;;;;;5.13;100.00;98731.41;7388474;19;19914;-60
2022/10/05 02:09:13;;;;;;;;;;;;;;;5.28;100.00;98732.69;7389215;19;20312;-59
2022/10/05 02:11:47;;;;;;;;;;;;;;;5.12;100.00;98731.47;7383496;19;19918;-60
2022/10/05 02:14:22;;;;;;;;;;;;;;;5.34;100.00;98724.66;7386248;19;19922;-59
2022/10/05 02:16:53;;;;;;;;;;;;;;;5.41;100.00;98723.56;7381106;19;20332;-67
2022/10/05 02:19:24;;;;;;;;;;;;;;;5.57;100.00;98733.44;7387522;19;19918;-63
2022/10/05 02:21:58;;;;;;;;;;;;;;;5.55;100.00;98731.81;7385006;19;20320;-60
2022/10/05 02:24:33;;;;;;;;;;;;;;;5.73;100.00;98724.19;7380181;19;19933;-59
2022/10/05 02:27:03;;;;;;;;;;;;;;;5.58;100.00;98714.25;7385998;19;19925;-59
2022/10/05 02:29:38;;;;;;;;;;;;;;;5.61;100.00;98713.31;7387825;19;19915;-59
2022/10/05 02:32:12;;;;;;;;;;;;;;;5.63;100.00;98720.22;7382618;19;20428;-60
2022/10/05 02:34:43;;;;;;;;;;;;;;;5.80;100.00;98735.28;7384918;19;20241;-61
2022/10/05 02:37:27;;;;;;;;;;;;;;;6.13;100.00;98747.19;7379929;19;19910;-59
2022/10/05 02:40:07;;;;;;;;;;;;;;;5.78;100.00;98737.09;7387357;19;19910;-59
2022/10/05 02:42:41;;;;;;;;;;;;;;;5.89;100.00;98743.69;7382372;19;20330;-62
2022/10/05 02:45:20;;;;;;;;;;;;;;;5.54;100.00;98744.00;7385298;19;19911;-60
2022/10/05 02:47:57;;;;;;;;;;;;;;;5.79;100.00;98744.03;7388002;19;19923;-60
2022/10/05 02:50:30;;;;;;;;;;;;;;;5.60;100.00;98748.16;7387792;19;19922;-59
2022/10/05 02:53:06;;;;;;;;;;;;;;;5.82;100.00;98755.22;7386015;19;19969;-59
2022/10/05 02:55:43;;;;;;;;;;;;;;;5.39;100.00;98757.53;7381546;19;19926;-61
2022/10/05 02:58:15;;;;;;;;;;;;;;;5.44;100.00;98752.19;7385871;19;19919;-60
2022/10/05 03:00:52;;;;;;;;;;;;;;;5.36;100.00;98749.78;7381861;19;20594;-67
2022/10/05 03:03:26;;;;;;;;;;;;;;;5.33;100.00;98757.72;7386141;19;19926;-59
2022/10/05 03:05:58;;;;;;;;;;;;;;;5.50;100.00;98765.88;7388151;19;19915;-63
2022/10/05 03:08:33;;;;;;;;;;;;;;;5.59;100.00;98773.38;7382717;19;19915;-60
2022/10/05 03:11:09;;;;;;;;;;;;;;;5.50;100.00;98776.31;7385658;19;19919;-60
2022/10/05 03:13:44;;;;;;;;;;;;;;;5.35;100.00;98770.72;7379203;19;19919;-61
2022/10/05 03:16:23;;;;;;;;;;;;;;;5.39;100.00;98759.28;7387475;19;19931;-59
2022/10/05 03:18:59;;;;;;;;;;;;;;;5.24;100.00;98758.03;7383238;19;19919;-66
2022/10/05 03:21:37;;;;;;;;;;;;;;;5.18;100.00;98755.59;7385500;19;19915;-59
2022/10/05 03:24:15;;;;;;;;;;;;;;;5.34;100.00;98756.84;7385273;19;19925;-59
2022/10/05 03:26:51;;;;;;;;;;;;;;;5.42;100.00;98749.63;7388626;19;19987;-59
2022/10/05 03:29:28;;;;;;;;;;;;;;;5.22;100.00;98746.78;7385795;19;19911;-59
2022/10/05 03:32:03;;;;;;;;;;;;;;;5.39;100.00;98741.88;7380916;19;19914;-59
2022/10/05 03:34:38;;;;;;;;;;;;;;;5.34;100.00;98738.56;7385598;19;20337;-59
2022/10/05 03:37:12;;;;;;;;;;;;;;;5.46;100.00;98732.94;7381234;19;20297;-66
2022/10/05 03:39:46;;;;;;;;;;;;;;;5.30;100.00;98720.44;7386148;19;19911;-59
2022/10/05 03:42:20;;;;;;;;;;;;;;;5.38;100.00;98710.63;7384683;19;19970;-59
2022/10/05 03:44:55;;;;;;;;;;;;;;;5.30;100.00;98703.06;7382624;19;19952;-59
2022/10/05 03:47:31;;;;;;;;;;;;;;;5.39;100.00;98697.53;7382578;19;19934;-59
2022/10/05 03:50:13;;;;;;;;;;;;;;;5.53;100.00;98689.22;7379737;19;19931;-61
2022/10/05 03:52:47;;;;;;;;;;;;;;;5.42;100.00;98681.78;7386082;19;19946;-59
2022/10/05 03:55:23;;;;;;;;;;;;;;;5.63;100.00;98673.22;7380020;19;19919;-64
2022/10/05 03:57:57;;;;;;;;;;;;;;;5.84;100.00;98676.84;7384787;19;20253;-59
2022/10/05 04:00:27;;;;;;;;;;;;;;;5.67;100.00;98676.56;7384642;19;19966;-60
2022/10/05 04:03:11;;;;;;;;;;;;;;;5.76;100.00;98677.09;7381910;19;19915;-60
2022/10/05 04:05:46;;;;;;;;;;;;;;;6.21;100.00;98661.59;7384892;19;19921;-59
2022/10/05 04:08:22;;;;;;;;;;;;;;;6.16;100.00;98655.66;7385599;19;19918;-60
2022/10/05 04:10:53;;;;;;;;;;;;;;;6.01;100.00;98658.84;7392412;19;19918;-58
2022/10/05 04:13:31;;;;;;;;;;;;;;;5.95;100.00;98656.47;7389022;19;19918;-64
2022/10/05 04:16:04;;;;;;;;;;;;;;;6.01;100.00;98666.66;7392104;19;19955;-59
2022/10/05 04:18:39;;;;;;;;;;;;;;;6.39;100.00;98671.38;7391023;19;20184;-58
2022/10/05 04:21:13;;;;;;;;;;;;;;;6.15;100.00;98670.50;7386679;19;19922;-60
2022/10/05 04:23:46;;;;;;;;;;;;;;;6.26;100.00;98667.50;7390704;19;20343;-59
2022/10/05 04:26:20;;;;;;;;;;;;;;;6.26;100.00;98667.50;7389791;19;19915;-65
2022/10/05 04:28:54;;;;;;;;;;;;;;;6.41;100.00;98662.56;7393276;19;19998;-57
2022/10/05 04:31:31;;;;;;;;;;;;;;;6.53;100.00;98667.31;7391057;19;19918;-58
2022/10/05 04:34:07;;;;;;;;;;;;;;;6.38;100.00;98667.88;7389687;19;19918;-58
2022/10/05 04:36:43;;;;;;;;;;;;;;;6.25;100.00;98671.84;7392377;19;19917;-58
2022/10/05 04:39:17;;;;;;;;;;;;;;;6.34;100.00;98674.13;7385393;19;19939;-60
2022/10/05 04:42:03;;;;;;;;;;;;;;;6.46;100.00;98664.97;7390690;19;19945;-59
2022/10/05 04:44:47;;;;;;;;;;;;;;;6.42;100.00;98674.69;7381736;19;19919;-60
2022/10/05 04:47:27;;;;;;;;;;;;;;;6.40;100.00;98667.84;7385124;19;19911;-59
2022/10/05 04:50:12;;;;;;;;;;;;;;;6.44;100.00;98666.81;7383553;19;19919;-60
2022/10/05 04:52:58;;;;;;;;;;;;;;;6.61;100.00;98675.72;7387380;19;19915;-61
2022/10/05 04:55:33;;;;;;;;;;;;;;;6.49;100.00;98686.63;7389150;19;19930;-61
2022/10/05 04:58:06;;;;;;;;;;;;;;;6.40;100.00;98676.50;7387908;19;19923;-61
2022/10/05 05:00:44;;;;;;;;;;;;;;;6.18;100.00;98672.97;7381786;19;19934;-61
2022/10/05 05:03:29;;;;;;;;;;;;;;;6.29;100.00;98680.44;7388881;19;19927;-58
2022/10/05 05:06:10;;;;;;;;;;;;;;;6.38;100.00;98685.31;7384782;19;19940;-60
2022/10/05 05:09:03;;;;;;;;;;;;;;;6.42;100.00;98668.59;7390459;19;19918;-60
2022/10/05 05:11:44;;;;;;;;;;;;;;;6.55;100.00;98668.09;7390887;19;20347;-59
2022/10/05 05:14:23;;;;;;;;;;;;;;;6.48;100.00;98663.16;7389801;19;20361;-58
2022/10/05 05:17:00;;;;;;;;;;;;;;;6.57;100.00;98663.66;7389484;19;20417;-59
2022/10/05 05:19:36;;;;;;;;;;;;;;;6.75;100.00;98678.66;7386781;19;19915;-49
2022/10/05 05:22:09;;;;;;;;;;;;;;;6.50;100.00;98672.66;7382419;19;20270;-59
2022/10/05 05:24:50;;;;;;;;;;;;;;;6.31;100.00;98679.47;7388465;19;19939;-60
2022/10/05 05:27:37;;;;;;;;;;;;;;;6.88;100.00;98653.69;7384444;19;19911;-54
2022/10/05 05:30:16;;;;;;;;;;;;;;;6.65;100.00;98666.84;7390729;19;19919;-53
2022/10/05 05:32:50;;;;;;;;;;;;;;;6.65;100.00;98666.84;7385050;19;19926;-60
2022/10/05 05:35:34;;;;;;;;;;;;;;;6.78;100.00;98673.31;7388138;19;19911;-61
2022/10/05 05:38:11;;;;;;;;;;;;;;;6.66;100.00;98686.81;7382028;19;19914;-59
2022/10/05 05:40:47;;;;;;;;;;;;;;;6.86;100.00;98686.06;7391013;19;20292;-62
2022/10/05 05:43:27;;;;;;;;;;;;;;;6.53;100.00;98693.44;7386890;19;19914;-65
2022/10/05 05:46:02;;;;;;;;;;;;;;;6.92;100.00;98699.78;7388571;19;19929;-59
2022/10/05 05:48:37;;;;;;;;;;;;;;;6.91;100.00;98700.66;7385619;19;20323;-66
2022/10/05 05:51:10;;;;;;;;;;;;;;;7.03;100.00;98700.22;7388514;19;19910;-59
2022/10/05 05:53:43;;;;;;;;;;;;;;;6.82;100.00;98706.28;7386440;19;19919;-59
2022/10/05 05:56:21;;;;;;;;;;;;;;;6.59;100.00;98701.06;7382718;19;19917;-59
2022/10/05 05:58:54;;;;;;;;;;;;;;;6.79;100.00;98697.66;7387147;19;19921;-58
2022/10/05 06:01:26;;;;;;;;;;;;;;;7.17;100.00;98681.34;7387281;19;20324;-59
2022/10/05 06:03:58;;;;;;;;;;;;;;;7.10;100.00;98679.88;7387171;19;19919;-59
2022/10/05 06:06:29;;;;;;;;;;;;;;;7.19;100.00;98690.84;7384700;19;19931;-61
2022/10/05 06:09:01;;;;;;;;;;;;;;;7.35;100.00;98697.13;7383754;19;19925;-66
2022/10/05 06:11:47;;;;;;;;;;;;;;;7.31;100.00;98699.94;7386958;19;19915;-62
2022/10/05 06:14:20;;;;;;;;;;;;;;;7.19;100.00;98689.97;7381941;19;19925;-67
2022/10/05 06:16:53;;;;;;;;;;;;;;;7.44;100.00;98691.53;7385821;19;19922;-61
2022/10/05 06:19:25;;;;;;;;;;;;;;;7.56;100.00;98698.00;7384351;19;19907;-60
2022/10/05 06:21:59;;;;;;;;;;;;;;;7.73;100.00;98699.03;7380311;19;19919;-61
2022/10/05 06:24:37;;;;;;;;;;;;;;;7.68;100.00;98708.84;7384167;19;19922;-60
2022/10/05 06:27:22;;;;;;;;;;;;;;;7.56;100.00;98701.50;7381595;19;19974;-63
2022/10/05 06:30:09;;;;;;;;;;;;;;;7.53;100.00;98696.38;7384625;19;20339;-62
2022/10/05 06:32:53;;;;;;;;;;;;;;;7.65;100.00;98706.34;7379756;19;19910;-62
2022/10/05 06:35:32;;;;;;;;;;;;;;;7.46;100.00;98704.56;7382115;19;20504;-61
2022/10/05 06:38:11;;;;;;;;;;;;;;;7.59;100.00;98698.75;7380082;19;19910;-62
2022/10/05 06:40:47;;;;;;;;;;;;;;;7.70;100.00;98704.41;7384413;19;19929;-61
2022/10/05 06:43:30;;;;;;;;;;;;;;;7.67;100.00;98695.81;7380299;19;20536;-61
2022/10/05 06:46:33;;;;;;;;;;;;;;;7.80;100.00;98689.19;7378841;19;20337;-61
2022/10/05 06:49:29;;;;;;;;;;;;;;;7.70;100.00;98691.31;7381946;19;19960;-60
2022/10/05 06:52:27;;;;;;;;;;;;;;;8.13;100.00;98685.94;7383506;19;20327;-60
2022/10/05 06:55:12;;;;;;;;;;;;;;;8.11;100.00;98679.06;7379622;19;19921;-62
2022/10/05 06:57:48;;;;;;;;;;;;;;;8.22;100.00;98671.56;7384040;19;20345;-61
2022/10/05 07:00:20;;;;;;;;;;;;;;;8.23;100.00;98675.88;7378718;19;19948;-63
2022/10/05 07:03:00;;;;;;;;;;;;;;;8.29;100.00;98677.38;7384008;19;19988;-59
2022/10/05 07:05:47;;;;;;;;;;;;;;;8.51;100.00;98673.72;7385950;19;19929;-61
2022/10/05 07:08:23;;;;;;;;;;;;;;;8.46;100.00;98674.88;7382473;19;20351;-61
2022/10/05 07:11:09;;;;;;;;;;;;;;;8.52;100.00;98678.03;7379468;19;19952;-67
2022/10/05 07:13:53;;;;;;;;;;;;;;;8.61;100.00;98689.91;7375094;19;19926;-63
2022/10/05 07:16:31;;;;;;;;;;;;;;;8.69;100.00;98687.75;7372361;19;19913;-56
2022/10/05 07:19:13;;;;;;;;;;;;;;;8.86;100.00;98690.47;7380106;19;19935;-64
2022/10/05 07:21:50;;;;;;;;;;;;;;;9.05;100.00;98676.41;7374863;19;19918;-60
2022/10/05 07:24:37;;;;;;;;;;;;;;;9.22;100.00;98693.97;7376817;19;20316;-62
2022/10/05 07:27:12;;;;;;;;;;;;;;;9.28;100.00;98696.28;7374177;19;19942;-63
2022/10/05 07:29:52;;;;;;;;;;;;;;;9.42;100.00;98701.75;7380393;19;19978;-61
2022/10/05 07:32:29;;;;;;;;;;;;;;;9.34;100.00;98699.53;7376612;19;19915;-62
2022/10/05 07:35:03;;;;;;;;;;;;;;;9.60;100.00;98691.22;7378974;19;19922;-60
2022/10/05 07:40:29;;;;;;;;;;;;;;;9.97;100.00;98692.81;7376873;19;20544;-61
2022/10/05 07:43:09;;;;;;;;;;;;;;;9.90;100.00;98700.16;7370731;19;19918;-63
2022/10/05 07:45:44;;;;;;;;;;;;;;;9.61;100.00;98702.53;7380525;19;20228;-62
2022/10/05 07:48:20;;;;;;;;;;;;;;;9.73;100.00;98702.78;7379224;19;19975;-62
2022/10/05 07:50:56;;;;;;;;;;;;;;;9.85;100.00;98704.78;7375152;19;20432;-62
2022/10/05 07:53:30;;;;;;;;;;;;;;;9.79;100.00;98705.13;7377214;19;19907;-64
2022/10/05 07:56:09;;;;;;;;;;;;;;;9.76;100.00;98696.53;7373672;19;19911;-60
2022/10/05 07:58:44;;;;;;;;;;;;;;;9.89;100.00;98695.00;7381689;19;19971;-60
2022/10/05 08:01:17;;;;;;;;;;;;;;;9.97;100.00;98695.44;7372895;19;19950;-62
2022/10/05 08:03:53;;;;;;;;;;;;;;;9.94;100.00;98691.19;7379700;19;19923;-61
2022/10/05 08:06:40;;;;;;;;;;;;;;;9.98;100.00;98691.88;7376480;19;20402;-62
2022/10/05 08:09:15;;;;;;;;;;;;;;;10.21;100.00;98684.50;7378885;19;19978;-63
2022/10/05 08:11:54;;;;;;;;;;;;;;;10.17;100.00;98687.34;7380682;19;20250;-62
2022/10/05 08:14:27;;;;;;;;;;;;;;;10.52;100.00;98686.38;7379320;19;20335;-61
2022/10/05 08:16:59;;;;;;;;;;;;;;;10.51;100.00;98684.69;7380527;19;19926;-62
2022/10/05 08:19:35;;;;;;;;;;;;;;;10.35;100.00;98684.63;7370265;19;19922;-56
2022/10/05 08:22:08;;;;;;;;;;;;;;;10.33;100.00;98681.22;7378890;19;19919;-62
2022/10/05 08:24:43;;;;;;;;;;;;;;;10.31;100.00;98680.47;7378936;19;20290;-62
2022/10/05 08:27:18;;;;;;;;;;;;;;;10.55;100.00;98679.16;7377984;19;19921;-62
2022/10/05 08:29:50;;;;;;;;;;;;;;;10.25;100.00;98703.63;7380226;19;19918;-63
2022/10/05 08:32:22;;;;;;;;;;;;;;;10.56;100.00;98706.31;7375111;19;19919;-62
2022/10/05 08:34:55;;;;;;;;;;;;;;;10.67;100.00;98704.81;7378434;19;20277;-62
2022/10/05 08:37:29;;;;;;;;;;;;;;;10.73;100.00;98711.56;7379531;19;19918;-62
2022/10/05 08:40:01;;;;;;;;;;;;;;;10.81;100.00;98712.00;7379234;19;20435;-62
2022/10/05 08:42:45;;;;;;;;;;;;;;;11.05;100.00;98705.38;7379755;19;19918;-59
2022/10/05 08:45:32;;;;;;;;;;;;;;;11.01;100.00;98695.94;7375851;19;20497;-61
2022/10/05 08:48:06;;;;;;;;;;;;;;;10.96;100.00;98704.13;7381531;19;20268;-60
2022/10/05 08:50:44;;;;;;;;;;;;;;;10.95;100.00;98698.94;7377914;19;19926;-62
2022/10/05 08:53:21;;;;;;;;;;;;;;;11.08;100.00;98700.81;7381403;19;19923;-67
2022/10/05 08:55:56;;;;;;;;;;;;;;;11.11;100.00;98695.38;7385282;19;19937;-62
2022/10/05 08:58:47;;;;;;;;;;;;;;;11.20;100.00;98692.22;7388733;19;19915;-62
2022/10/05 09:01:22;;;;;;;;;;;;;;;11.47;100.00;98699.47;7384082;19;19918;-61
2022/10/05 09:04:07;;;;;;;;;;;;;;;11.41;100.00;98711.22;7387722;19;19919;-62
2022/10/05 09:06:59;;;;;;;;;;;;;;;11.30;100.00;98690.75;7383128;19;19993;-61
2022/10/05 09:09:48;;;;;;;;;;;;;;;11.43;100.00;98690.91;7383972;19;19918;-64
2022/10/05 09:12:42;;;;;;;;;;;;;;;11.42;100.00;98686.56;7383166;19;20328;-59
2022/10/05 09:15:21;;;;;;;;;;;;;;;11.60;100.00;98679.41;7378675;19;20027;-59
2022/10/05 09:18:09;;;;;;;;;;;;;;;11.72;100.00;98669.00;7379067;19;20019;-60
2022/10/05 09:20:53;;;;;;;;;;;;;;;11.80;100.00;98669.41;7385610;19;19943;-61
2022/10/05 09:23:33;;;;;;;;;;;;;;;12.02;100.00;98671.63;7385313;19;19922;-60
2022/10/05 09:26:09;;;;;;;;;;;;;;;12.29;100.00;98673.44;7384124;19;19923;-59
2022/10/05 09:28:47;;;;;;;;;;;;;;;12.09;100.00;98665.91;7378147;19;21223;-62
2022/10/05 09:31:33;;;;;;;;;;;;;;;12.03;100.00;98663.63;7373436;19;19940;-62
2022/10/05 09:34:23;;;;;;;;;;;;;;;12.03;100.00;98670.69;7382307;19;19923;-62
2022/10/05 09:37:07;;;;;;;;;;;;;;;12.01;100.00;98672.56;7382255;19;20328;-60
2022/10/05 09:39:51;;;;;;;;;;;;;;;12.04;100.00;98667.94;7377868;19;19919;-65
2022/10/05 09:42:27;;;;;;;;;;;;;;;12.30;100.00;98650.56;7383198;19;20042;-63
2022/10/05 09:45:11;;;;;;;;;;;;;;;12.41;100.00;98662.13;7377800;19;19989;-56
2022/10/05 09:47:58;;;;;;;;;;;;;;;12.60;100.00;98646.84;7382312;19;19923;-55
2022/10/05 09:50:43;;;;;;;;;;;;;;;12.72;100.00;98667.22;7383971;19;19915;-58
2022/10/05 09:53:31;;;;;;;;;;;;;;;12.65;100.00;98662.41;7383971;19;19933;-62
2022/10/05 09:56:19;;;;;;;;;;;;;;;12.85;100.00;98662.84;7384474;19;20297;-60
2022/10/05 09:59:07;;;;;;;;;;;;;;;12.82;100.00;98663.03;7371561;19;20303;-65
2022/10/05 10:01:45;;;;;;;;;;;;;;;13.04;100.00;98663.38;7378939;19;19953;-64
2022/10/05 10:04:28;;;;;;;;;;;;;;;13.16;100.00;98664.41;7370696;19;20542;-63
2022/10/05 10:07:08;;;;;;;;;;;;;;;13.21;100.00;98671.09;7379247;19;20309;-64
2022/10/05 10:09:44;;;;;;;;;;;;;;;12.92;100.00;98674.72;7375009;19;20391;-63
2022/10/05 10:12:32;;;;;;;;;;;;;;;12.97;100.00;98674.44;7386296;19;19922;-60
2022/10/05 10:15:25;;;;;;;;;;;;;;;13.06;100.00;98669.44;7378745;19;19922;-62
2022/10/05 10:18:02;;;;;;;;;;;;;;;12.91;100.00;98672.19;7382499;19;20456;-62
2022/10/05 10:20:40;;;;;;;;;;;;;;;13.00;100.00;98675.09;7386304;19;20423;-58
2022/10/05 10:23:17;;;;;;;;;;;;;;;13.04;100.00;98671.28;7384878;19;19915;-52
2022/10/05 10:26:01;;;;;;;;;;;;;;;13.13;100.00;98664.59;7381153;19;19939;-63
2022/10/05 10:28:47;;;;;;;;;;;;;;;13.48;100.00;98664.00;7385060;19;19918;-59
2022/10/05 10:31:34;;;;;;;;;;;;;;;13.33;100.00;98654.44;7388498;19;19915;-62
2022/10/05 10:34:12;;;;;;;;;;;;;;;13.44;100.00;98662.50;7385106;19;19911;-64
2022/10/05 10:36:52;;;;;;;;;;;;;;;13.33;100.00;98657.09;7385428;19;19918;-61
2022/10/05 10:39:27;;;;;;;;;;;;;;;13.39;100.00;98663.75;7378832;19;19935;-68
2022/10/05 10:42:20;;;;;;;;;;;;;;;13.33;100.00;98654.44;7383749;19;20853;-61
2022/10/05 10:45:11;;;;;;;;;;;;;;;13.52;100.00;98654.09;7376827;19;20447;-62
2022/10/05 10:47:59;;;;;;;;;;;;;;;13.55;100.00;98653.91;7384100;19;19933;-55
2022/10/05 10:50:43;;;;;;;;;;;;;;;13.50;100.00;98661.25;7387293;19;19928;-62
2022/10/05 10:53:24;;;;;;;;;;;;;;;13.52;100.00;98656.75;7383725;19;19915;-62
2022/10/05 10:56:03;;;;;;;;;;;;;;;13.55;100.00;98653.91;7382213;19;19918;-61
2022/10/05 10:58:47;;;;;;;;;;;;;;;13.68;100.00;98649.47;7384681;19;19915;-62
2022/10/05 11:01:28;;;;;;;;;;;;;;;13.65;100.00;98639.94;7382989;19;19982;-62
2022/10/05 11:04:09;;;;;;;;;;;;;;;13.64;100.00;98643.56;7384434;19;19929;-68
2022/10/05 11:06:53;;;;;;;;;;;;;;;13.76;100.00;98652.44;7385645;19;20359;-61
2022/10/05 11:09:42;;;;;;;;;;;;;;;13.61;100.00;98651.69;7381032;19;19951;-64
2022/10/05 11:12:29;;;;;;;;;;;;;;;13.95;100.00;98653.75;7385955;19;19924;-60
2022/10/05 11:15:07;;;;;;;;;;;;;;;13.74;100.00;98655.19;7380888;19;20404;-60
2022/10/05 11:17:54;;;;;;;;;;;;;;;13.86;100.00;98648.25;7383234;19;20006;-60
2022/10/05 11:20:37;;;;;;;;;;;;;;;13.88;100.00;98644.53;7380508;19;19958;-58
2022/10/05 11:23:22;;;;;;;;;;;;;;;13.79;100.00;98639.88;7384356;19;19925;-52
2022/10/05 11:26:11;;;;;;;;;;;;;;;13.68;100.00;98634.47;7385411;19;19923;-62
2022/10/05 11:28:58;;;;;;;;;;;;;;;13.71;100.00;98643.97;7379137;19;19926;-60
2022/10/05 11:31:55;;;;;;;;;;;;;;;13.79;100.00;98645.16;7384719;19;19914;-57
2022/10/05 11:34:41;;;;;;;;;;;;;;;13.75;100.00;98642.81;7379497;19;19956;-61
2022/10/05 11:37:30;;;;;;;;;;;;;;;13.83;100.00;98641.38;7377825;19;20339;-68
2022/10/05 11:40:16;;;;;;;;;;;;;;;13.76;100.00;98624.22;7381385;19;19922;-61
2022/10/05 11:43:04;;;;;;;;;;;;;;;13.73;100.00;98636.81;7376980;19;20322;-60
2022/10/05 11:45:49;;;;;;;;;;;;;;;13.84;100.00;98629.81;7383220;19;19944;-61
2022/10/05 11:48:36;;;;;;;;;;;;;;;14.04;100.00;98621.38;7381692;19;20338;-60
2022/10/05 11:51:18;;;;;;;;;;;;;;;13.99;100.00;98626.13;7377648;19;19922;-62
2022/10/05 11:53:57;;;;;;;;;;;;;;;14.02;100.00;98625.94;7382187;19;19919;-64
2022/10/05 11:56:29;;;;;;;;;;;;;;;14.06;100.00;98624.75;7376158;19;19917;-67
2022/10/05 11:59:02;;;;;;;;;;;;;;;14.10;100.00;98614.84;7382875;19;19946;-61
2022/10/05 12:01:36;;;;;;;;;;;;;;;14.05;100.00;98614.28;7382866;19;19911;-61
2022/10/05 12:04:14;;;;;;;;;;;;;;;14.08;100.00;98611.44;7375555;19;19915;-62
2022/10/05 12:06:58;;;;;;;;;;;;;;;14.11;100.00;98614.72;7380202;19;19907;-60
2022/10/05 12:09:38;;;;;;;;;;;;;;;14.21;100.00;98623.72;7377355;19;19938;-53
2022/10/05 12:12:15;;;;;;;;;;;;;;;14.06;100.00;98623.91;7383783;19;19928;-64
2022/10/05 12:14:52;;;;;;;;;;;;;;;14.03;100.00;98629.44;7380014;19;19925;-64
2022/10/05 12:17:31;;;;;;;;;;;;;;;14.24;97.96;98620.03;7385587;19;19974;-60
2022/10/05 12:20:04;;;;;;;;;;;;;;;14.10;97.19;98613.00;7376474;19;19911;-58
2022/10/05 12:22:36;;;;;;;;;;;;;;;14.10;97.31;98596.31;7384606;19;19919;-60
2022/10/05 12:25:21;;;;;;;;;;;;;;;14.06;98.58;98598.31;7385678;19;19918;-59
2022/10/05 12:27:53;;;;;;;;;;;;;;;14.09;99.38;98603.38;7386712;19;19922;-60
2022/10/05 12:30:30;;;;;;;;;;;;;;;14.08;99.54;98596.41;7392255;19;19915;-60
2022/10/05 12:33:05;;;;;;;;;;;;;;;14.17;99.26;98606.38;7389136;19;19922;-60
2022/10/05 12:35:40;;;;;;;;;;;;;;;13.96;100.00;98594.59;7390411;19;19942;-55
2022/10/05 12:38:13;;;;;;;;;;;;;;;13.99;100.00;98597.03;7386188;19;19980;-66
2022/10/05 12:40:49;;;;;;;;;;;;;;;13.90;99.11;98613.53;7392796;19;19931;-59
2022/10/05 12:43:26;;;;;;;;;;;;;;;14.00;98.11;98598.72;7391981;19;19918;-61
2022/10/05 12:46:01;;;;;;;;;;;;;;;13.89;97.68;98603.06;7391853;19;19922;-59
2022/10/05 12:48:51;;;;;;;;;;;;;;;13.82;97.51;98607.06;7391220;19;19922;-59
2022/10/05 12:51:24;;;;;;;;;;;;;;;13.96;98.84;98599.88;7389996;19;19921;-58
2022/10/05 12:53:59;;;;;;;;;;;;;;;14.10;99.75;98606.88;7392874;19;19995;-60
2022/10/05 12:56:39;;;;;;;;;;;;;;;13.99;99.85;98606.78;7384115;19;20325;-51
2022/10/05 12:59:13;;;;;;;;;;;;;;;14.09;100.00;98606.03;7382561;19;19919;-61
2022/10/05 13:01:45;;;;;;;;;;;;;;;14.15;99.28;98615.38;7383413;19;19919;-62
2022/10/05 13:04:28;;;;;;;;;;;;;;;14.10;99.88;98612.19;7383649;19;19911;-58
2022/10/05 13:07:12;;;;;;;;;;;;;;;14.17;100.00;98601.09;7386150;19;19915;-62
2022/10/05 13:09:45;;;;;;;;;;;;;;;13.99;100.00;98596.19;7388653;19;19922;-61
2022/10/05 13:12:21;;;;;;;;;;;;;;;14.11;100.00;98606.78;7390806;19;20457;-56
2022/10/05 13:14:56;;;;;;;;;;;;;;;13.92;100.00;98611.63;7383361;19;19943;-60
2022/10/05 13:17:31;;;;;;;;;;;;;;;13.86;100.00;98608.56;7385676;19;21190;-63
2022/10/05 13:20:03;;;;;;;;;;;;;;;13.84;100.00;98608.66;7380296;19;19910;-62
2022/10/05 13:22:37;;;;;;;;;;;;;;;13.83;100.00;98620.19;7384428;19;19947;-61
2022/10/05 13:25:22;;;;;;;;;;;;;;;13.84;100.00;98606.00;7379362;19;19918;-65
2022/10/05 13:28:00;;;;;;;;;;;;;;;14.00;100.00;98604.00;7383137;19;19974;-58
2022/10/05 13:30:32;;;;;;;;;;;;;;;13.74;100.00;98596.19;7381434;19;19982;-65
2022/10/05 13:33:09;;;;;;;;;;;;;;;13.82;100.00;98599.16;7386208;19;19910;-59
2022/10/05 13:35:46;;;;;;;;;;;;;;;13.71;100.00;98591.94;7385729;19;20291;-59
2022/10/05 13:38:22;;;;;;;;;;;;;;;13.96;100.00;98589.28;7384942;19;20009;-57
2022/10/05 13:40:56;;;;;;;;;;;;;;;14.13;100.00;98596.09;7379908;19;20480;-59
2022/10/05 13:43:34;;;;;;;;;;;;;;;13.94;100.00;98583.28;7378630;19;19950;-60